خاركوف, Ukraine

02:55 PM EEST on أعس×س 24, 2016 (GMT +0300)
Osnova | | Change Station

Elev 505 ft 49.92 °N, 36.29 °E | Updated 25 minutes ago

Mostly Cloudy
غائم كلياً
82 °F
Feels Like 82 °F
N
2
ريح متغير ريح from متغير

هذا اليوم
High -- | Low -- °F
--% Chance of Precip.
Yesterday
High -- | Low -- °F
Precip. -- في
الضغط 29.92 في
وضوح الرؤية 6.2 أميال
سحابات Few 3000 ft
غائم كلياً 10000 ft
مؤشر الحرارة 82 °F
نقطة الندى 59 °F
الرطوبة 45%
Rainfall 0.00 في
عمق الثلج Not available.
5:38 AM 7:34 PM
الأحدب الأخير, 58% visible
METAR UKHH 241130Z VRB01MPS 9999 FEW030CB BKN100 28/15 Q1013 R07/0///67 NOSIG
الضغط 29.92 في
وضوح الرؤية 6.2 أميال
سحابات Few 3000 ft
غائم كلياً 10000 ft
مؤشر الحرارة 82 °F
نقطة الندى 59 °F
الرطوبة 45%
Rainfall 0.00 في
عمق الثلج Not available.
5:38 AM 7:34 PM
الأحدب الأخير, 58% visible
METAR UKHH 241130Z VRB01MPS 9999 FEW030CB BKN100 28/15 Q1013 R07/0///67 NOSIG

10-Day Weather Forecast

×

Almanac

علم الفلك

Aug. 24, 2016 Rise Set
Actual Time
Civil Twilight
Nautical Twilight
Astronomical Twilight
قمر
Length Of Visible Light
طول الیوم
Tomorrow will be .
, % of the Moon is Illuminated

Today's Extremes

Country Highs Country Lows

Community

WunderPhotos

Upload Photos

1,934,571 photos uploaded!

WunderBlog® & News

Nearby

جودة الهواء

  جودة الهواء AQ Index Pollutant
Not available.

عمق الثلج

Station Depth Elevation

Earthquake Activity

City Distance Mag. Time & Date
Minimum magnitude displayed is 2.5.

Coastal Water Temperatures

مكان درجات الحرارة

Stations

Nearby Weather Stations

Station Location الحرارة رياح باردة نقطة الندى الرطوبة ريح Precip. Elev تحديث Type